sensor_id;sensor_type;location;lat;lon;timestamp;P1;durP1;ratioP1;P2;durP2;ratioP2
22138;SDS011;25815;52.582;13.408;2023-04-28T00:01:20;17.10;;;8.88;;
22138;SDS011;25815;52.582;13.408;2023-04-28T00:03:46;16.00;;;8.57;;
22138;SDS011;25815;52.582;13.408;2023-04-28T00:06:12;15.27;;;8.88;;
22138;SDS011;25815;52.582;13.408;2023-04-28T00:08:39;15.35;;;8.65;;
22138;SDS011;25815;52.582;13.408;2023-04-28T00:11:11;18.25;;;8.73;;
22138;SDS011;25815;52.582;13.408;2023-04-28T00:13:37;18.88;;;9.52;;
22138;SDS011;25815;52.582;13.408;2023-04-28T00:16:03;14.95;;;7.80;;
22138;SDS011;25815;52.582;13.408;2023-04-28T00:18:29;16.92;;;8.77;;
22138;SDS011;25815;52.582;13.408;2023-04-28T00:20:57;17.05;;;8.75;;
22138;SDS011;25815;52.582;13.408;2023-04-28T00:23:23;17.60;;;8.52;;
22138;SDS011;25815;52.582;13.408;2023-04-28T00:25:52;15.60;;;8.82;;
22138;SDS011;25815;52.582;13.408;2023-04-28T00:28:18;17.17;;;7.88;;
22138;SDS011;25815;52.582;13.408;2023-04-28T00:30:44;19.15;;;8.75;;
22138;SDS011;25815;52.582;13.408;2023-04-28T00:33:11;14.25;;;7.90;;
22138;SDS011;25815;52.582;13.408;2023-04-28T00:35:37;16.35;;;8.27;;
22138;SDS011;25815;52.582;13.408;2023-04-28T00:38:03;13.27;;;7.40;;
22138;SDS011;25815;52.582;13.408;2023-04-28T00:40:32;14.75;;;7.28;;
22138;SDS011;25815;52.582;13.408;2023-04-28T00:42:59;13.65;;;7.00;;
22138;SDS011;25815;52.582;13.408;2023-04-28T00:45:25;15.55;;;7.40;;
22138;SDS011;25815;52.582;13.408;2023-04-28T00:47:51;18.63;;;7.80;;
22138;SDS011;25815;52.582;13.408;2023-04-28T00:50:17;15.68;;;7.65;;
22138;SDS011;25815;52.582;13.408;2023-04-28T00:52:43;14.95;;;7.38;;
22138;SDS011;25815;52.582;13.408;2023-04-28T00:55:09;11.50;;;7.45;;
22138;SDS011;25815;52.582;13.408;2023-04-28T00:57:35;14.63;;;7.68;;
22138;SDS011;25815;52.582;13.408;2023-04-28T01:00:01;15.65;;;7.38;;
22138;SDS011;25815;52.582;13.408;2023-04-28T01:02:27;13.07;;;7.78;;
22138;SDS011;25815;52.582;13.408;2023-04-28T01:04:55;13.57;;;7.32;;
22138;SDS011;25815;52.582;13.408;2023-04-28T01:07:21;14.85;;;7.43;;
22138;SDS011;25815;52.582;13.408;2023-04-28T01:09:47;17.55;;;7.68;;
22138;SDS011;25815;52.582;13.408;2023-04-28T01:12:13;12.57;;;6.85;;
22138;SDS011;25815;52.582;13.408;2023-04-28T01:14:39;13.90;;;6.88;;
22138;SDS011;25815;52.582;13.408;2023-04-28T01:17:05;13.88;;;6.03;;
22138;SDS011;25815;52.582;13.408;2023-04-28T01:19:32;12.10;;;6.53;;
22138;SDS011;25815;52.582;13.408;2023-04-28T01:21:58;10.80;;;6.80;;
22138;SDS011;25815;52.582;13.408;2023-04-28T01:24:24;9.75;;;6.18;;
22138;SDS011;25815;52.582;13.408;2023-04-28T01:26:50;14.85;;;6.15;;
22138;SDS011;25815;52.582;13.408;2023-04-28T01:29:16;13.35;;;6.68;;
22138;SDS011;25815;52.582;13.408;2023-04-28T01:31:42;10.55;;;5.97;;
22138;SDS011;25815;52.582;13.408;2023-04-28T01:34:08;12.13;;;6.15;;
22138;SDS011;25815;52.582;13.408;2023-04-28T01:36:34;9.57;;;5.78;;
22138;SDS011;25815;52.582;13.408;2023-04-28T01:38:59;12.18;;;5.57;;
22138;SDS011;25815;52.582;13.408;2023-04-28T01:41:25;11.23;;;5.90;;
22138;SDS011;25815;52.582;13.408;2023-04-28T01:43:51;12.30;;;6.53;;
22138;SDS011;25815;52.582;13.408;2023-04-28T01:46:17;11.90;;;6.00;;
22138;SDS011;25815;52.582;13.408;2023-04-28T01:48:43;12.25;;;6.10;;
22138;SDS011;25815;52.582;13.408;2023-04-28T01:51:09;11.00;;;5.70;;
22138;SDS011;25815;52.582;13.408;2023-04-28T01:53:35;13.68;;;6.57;;
22138;SDS011;25815;52.582;13.408;2023-04-28T01:56:01;11.88;;;6.10;;
22138;SDS011;25815;52.582;13.408;2023-04-28T01:58:27;11.95;;;6.43;;
22138;SDS011;25815;52.582;13.408;2023-04-28T02:00:53;9.70;;;5.50;;
22138;SDS011;25815;52.582;13.408;2023-04-28T02:03:19;10.95;;;5.45;;
22138;SDS011;25815;52.582;13.408;2023-04-28T02:05:45;10.00;;;5.72;;
22138;SDS011;25815;52.582;13.408;2023-04-28T02:08:10;9.50;;;5.82;;
22138;SDS011;25815;52.582;13.408;2023-04-28T02:10:36;12.85;;;5.65;;
22138;SDS011;25815;52.582;13.408;2023-04-28T02:13:02;13.02;;;5.40;;
22138;SDS011;25815;52.582;13.408;2023-04-28T02:15:28;9.43;;;5.55;;
22138;SDS011;25815;52.582;13.408;2023-04-28T02:17:54;10.73;;;5.57;;
22138;SDS011;25815;52.582;13.408;2023-04-28T02:20:20;8.88;;;5.20;;
22138;SDS011;25815;52.582;13.408;2023-04-28T02:22:46;9.55;;;5.20;;
22138;SDS011;25815;52.582;13.408;2023-04-28T02:25:12;10.43;;;5.03;;
22138;SDS011;25815;52.582;13.408;2023-04-28T02:27:38;10.55;;;5.25;;
22138;SDS011;25815;52.582;13.408;2023-04-28T02:30:05;12.20;;;5.53;;
22138;SDS011;25815;52.582;13.408;2023-04-28T02:32:31;9.85;;;5.38;;
22138;SDS011;25815;52.582;13.408;2023-04-28T02:34:57;11.23;;;5.82;;
22138;SDS011;25815;52.582;13.408;2023-04-28T02:37:23;8.32;;;5.00;;
22138;SDS011;25815;52.582;13.408;2023-04-28T02:39:49;10.23;;;5.13;;
22138;SDS011;25815;52.582;13.408;2023-04-28T02:42:15;9.23;;;4.95;;
22138;SDS011;25815;52.582;13.408;2023-04-28T02:44:41;8.85;;;5.00;;
22138;SDS011;25815;52.582;13.408;2023-04-28T02:47:07;8.88;;;5.47;;
22138;SDS011;25815;52.582;13.408;2023-04-28T02:49:33;8.35;;;4.70;;
22138;SDS011;25815;52.582;13.408;2023-04-28T02:51:58;10.57;;;5.43;;
22138;SDS011;25815;52.582;13.408;2023-04-28T02:54:24;10.13;;;4.97;;
22138;SDS011;25815;52.582;13.408;2023-04-28T02:56:54;10.25;;;5.10;;
22138;SDS011;25815;52.582;13.408;2023-04-28T02:59:20;9.60;;;5.55;;
22138;SDS011;25815;52.582;13.408;2023-04-28T03:01:46;9.32;;;5.00;;
22138;SDS011;25815;52.582;13.408;2023-04-28T03:04:13;9.32;;;5.07;;
22138;SDS011;25815;52.582;13.408;2023-04-28T03:06:39;8.38;;;4.32;;
22138;SDS011;25815;52.582;13.408;2023-04-28T03:09:05;10.90;;;4.78;;
22138;SDS011;25815;52.582;13.408;2023-04-28T03:11:31;8.65;;;4.80;;
22138;SDS011;25815;52.582;13.408;2023-04-28T03:13:57;12.90;;;4.90;;
22138;SDS011;25815;52.582;13.408;2023-04-28T03:16:23;10.27;;;4.35;;
22138;SDS011;25815;52.582;13.408;2023-04-28T03:18:49;8.77;;;4.45;;
22138;SDS011;25815;52.582;13.408;2023-04-28T03:21:15;10.93;;;4.40;;
22138;SDS011;25815;52.582;13.408;2023-04-28T03:23:41;9.60;;;4.90;;
22138;SDS011;25815;52.582;13.408;2023-04-28T03:26:07;10.18;;;4.35;;
22138;SDS011;25815;52.582;13.408;2023-04-28T03:28:33;9.93;;;4.18;;
22138;SDS011;25815;52.582;13.408;2023-04-28T03:30:58;8.80;;;4.43;;
22138;SDS011;25815;52.582;13.408;2023-04-28T03:33:24;6.70;;;4.13;;
22138;SDS011;25815;52.582;13.408;2023-04-28T03:35:50;11.23;;;4.45;;
22138;SDS011;25815;52.582;13.408;2023-04-28T03:38:17;8.95;;;4.15;;
22138;SDS011;25815;52.582;13.408;2023-04-28T03:40:43;6.25;;;4.18;;
22138;SDS011;25815;52.582;13.408;2023-04-28T03:43:09;8.48;;;4.07;;
22138;SDS011;25815;52.582;13.408;2023-04-28T03:45:35;6.30;;;3.95;;
22138;SDS011;25815;52.582;13.408;2023-04-28T03:48:01;6.65;;;3.83;;
22138;SDS011;25815;52.582;13.408;2023-04-28T03:50:27;9.70;;;4.50;;
22138;SDS011;25815;52.582;13.408;2023-04-28T03:52:53;7.03;;;4.00;;
22138;SDS011;25815;52.582;13.408;2023-04-28T03:55:19;10.25;;;4.07;;
22138;SDS011;25815;52.582;13.408;2023-04-28T03:57:45;7.38;;;4.13;;
22138;SDS011;25815;52.582;13.408;2023-04-28T04:00:12;6.97;;;4.10;;
22138;SDS011;25815;52.582;13.408;2023-04-28T04:02:38;6.68;;;4.20;;
22138;SDS011;25815;52.582;13.408;2023-04-28T04:05:04;9.75;;;3.70;;
22138;SDS011;25815;52.582;13.408;2023-04-28T04:07:30;13.57;;;4.30;;
22138;SDS011;25815;52.582;13.408;2023-04-28T04:09:56;6.93;;;4.22;;
22138;SDS011;25815;52.582;13.408;2023-04-28T04:12:22;7.90;;;4.03;;
22138;SDS011;25815;52.582;13.408;2023-04-28T04:14:48;8.77;;;3.92;;
22138;SDS011;25815;52.582;13.408;2023-04-28T04:17:14;9.55;;;4.55;;
22138;SDS011;25815;52.582;13.408;2023-04-28T04:19:40;8.38;;;4.28;;
22138;SDS011;25815;52.582;13.408;2023-04-28T04:22:06;9.27;;;4.70;;
22138;SDS011;25815;52.582;13.408;2023-04-28T04:24:32;8.15;;;3.67;;
22138;SDS011;25815;52.582;13.408;2023-04-28T04:26:58;7.45;;;4.20;;
22138;SDS011;25815;52.582;13.408;2023-04-28T04:29:24;9.70;;;4.50;;
22138;SDS011;25815;52.582;13.408;2023-04-28T04:31:50;8.98;;;4.00;;
22138;SDS011;25815;52.582;13.408;2023-04-28T04:34:16;10.05;;;4.70;;
22138;SDS011;25815;52.582;13.408;2023-04-28T04:36:42;9.60;;;4.78;;
22138;SDS011;25815;52.582;13.408;2023-04-28T04:39:08;9.70;;;4.10;;
22138;SDS011;25815;52.582;13.408;2023-04-28T04:41:34;11.80;;;4.57;;
22138;SDS011;25815;52.582;13.408;2023-04-28T04:44:00;11.27;;;4.30;;
22138;SDS011;25815;52.582;13.408;2023-04-28T04:46:26;9.52;;;4.20;;
22138;SDS011;25815;52.582;13.408;2023-04-28T04:48:52;15.07;;;4.72;;
22138;SDS011;25815;52.582;13.408;2023-04-28T04:51:18;9.20;;;4.43;;
22138;SDS011;25815;52.582;13.408;2023-04-28T04:53:43;12.40;;;4.70;;
22138;SDS011;25815;52.582;13.408;2023-04-28T04:56:09;10.38;;;4.85;;
22138;SDS011;25815;52.582;13.408;2023-04-28T04:58:35;11.00;;;4.50;;
22138;SDS011;25815;52.582;13.408;2023-04-28T05:01:01;10.27;;;4.00;;
22138;SDS011;25815;52.582;13.408;2023-04-28T05:03:27;12.30;;;4.18;;
22138;SDS011;25815;52.582;13.408;2023-04-28T05:05:53;12.20;;;4.30;;
22138;SDS011;25815;52.582;13.408;2023-04-28T05:08:19;13.75;;;5.25;;
22138;SDS011;25815;52.582;13.408;2023-04-28T05:10:45;9.85;;;4.50;;
22138;SDS011;25815;52.582;13.408;2023-04-28T05:13:11;8.63;;;4.38;;
22138;SDS011;25815;52.582;13.408;2023-04-28T05:15:37;10.45;;;4.72;;
22138;SDS011;25815;52.582;13.408;2023-04-28T05:18:03;12.45;;;4.10;;
22138;SDS011;25815;52.582;13.408;2023-04-28T05:20:34;9.93;;;4.25;;
22138;SDS011;25815;52.582;13.408;2023-04-28T05:23:00;10.30;;;3.88;;
22138;SDS011;25815;52.582;13.408;2023-04-28T05:25:26;9.38;;;4.30;;
22138;SDS011;25815;52.582;13.408;2023-04-28T05:27:52;7.47;;;3.85;;
22138;SDS011;25815;52.582;13.408;2023-04-28T05:30:18;9.35;;;3.88;;
22138;SDS011;25815;52.582;13.408;2023-04-28T05:32:44;7.35;;;3.78;;
22138;SDS011;25815;52.582;13.408;2023-04-28T05:35:10;7.32;;;3.75;;
22138;SDS011;25815;52.582;13.408;2023-04-28T05:37:36;6.63;;;3.88;;
22138;SDS011;25815;52.582;13.408;2023-04-28T05:40:02;9.68;;;4.20;;
22138;SDS011;25815;52.582;13.408;2023-04-28T05:42:28;12.70;;;4.22;;
22138;SDS011;25815;52.582;13.408;2023-04-28T05:44:54;8.40;;;3.92;;
22138;SDS011;25815;52.582;13.408;2023-04-28T05:47:20;8.32;;;4.03;;
22138;SDS011;25815;52.582;13.408;2023-04-28T05:49:46;7.78;;;4.00;;
22138;SDS011;25815;52.582;13.408;2023-04-28T05:52:12;10.27;;;4.38;;
22138;SDS011;25815;52.582;13.408;2023-04-28T05:54:38;10.45;;;3.85;;
22138;SDS011;25815;52.582;13.408;2023-04-28T05:57:04;11.32;;;3.80;;
22138;SDS011;25815;52.582;13.408;2023-04-28T05:59:30;11.13;;;4.45;;
22138;SDS011;25815;52.582;13.408;2023-04-28T06:01:57;8.98;;;3.92;;
22138;SDS011;25815;52.582;13.408;2023-04-28T06:04:23;10.55;;;3.80;;
22138;SDS011;25815;52.582;13.408;2023-04-28T06:06:49;11.15;;;4.07;;
22138;SDS011;25815;52.582;13.408;2023-04-28T06:09:15;10.68;;;4.03;;
22138;SDS011;25815;52.582;13.408;2023-04-28T06:11:41;10.00;;;4.05;;
22138;SDS011;25815;52.582;13.408;2023-04-28T06:14:07;10.00;;;4.68;;
22138;SDS011;25815;52.582;13.408;2023-04-28T06:16:33;11.32;;;4.20;;
22138;SDS011;25815;52.582;13.408;2023-04-28T06:18:59;11.05;;;4.25;;
22138;SDS011;25815;52.582;13.408;2023-04-28T06:21:25;8.75;;;4.47;;
22138;SDS011;25815;52.582;13.408;2023-04-28T06:23:52;8.63;;;4.35;;
22138;SDS011;25815;52.582;13.408;2023-04-28T06:26:18;12.40;;;4.22;;
22138;SDS011;25815;52.582;13.408;2023-04-28T06:28:44;11.05;;;4.40;;
22138;SDS011;25815;52.582;13.408;2023-04-28T06:31:10;15.00;;;4.13;;
22138;SDS011;25815;52.582;13.408;2023-04-28T06:33:36;7.57;;;4.28;;
22138;SDS011;25815;52.582;13.408;2023-04-28T06:36:02;8.98;;;3.38;;
22138;SDS011;25815;52.582;13.408;2023-04-28T06:38:28;8.70;;;3.47;;
22138;SDS011;25815;52.582;13.408;2023-04-28T06:40:54;9.52;;;3.45;;
22138;SDS011;25815;52.582;13.408;2023-04-28T06:43:20;8.93;;;3.60;;
22138;SDS011;25815;52.582;13.408;2023-04-28T06:45:46;10.48;;;3.40;;
22138;SDS011;25815;52.582;13.408;2023-04-28T06:48:12;8.35;;;3.28;;
22138;SDS011;25815;52.582;13.408;2023-04-28T06:50:38;10.65;;;3.08;;
22138;SDS011;25815;52.582;13.408;2023-04-28T06:53:04;7.57;;;3.55;;
22138;SDS011;25815;52.582;13.408;2023-04-28T06:55:31;6.47;;;3.10;;
22138;SDS011;25815;52.582;13.408;2023-04-28T06:57:57;6.57;;;3.40;;
22138;SDS011;25815;52.582;13.408;2023-04-28T07:00:23;8.90;;;3.30;;
22138;SDS011;25815;52.582;13.408;2023-04-28T07:02:49;7.63;;;3.25;;
22138;SDS011;25815;52.582;13.408;2023-04-28T07:05:15;9.55;;;3.15;;
22138;SDS011;25815;52.582;13.408;2023-04-28T07:07:41;7.90;;;3.30;;
22138;SDS011;25815;52.582;13.408;2023-04-28T07:10:07;8.32;;;2.95;;
22138;SDS011;25815;52.582;13.408;2023-04-28T07:12:34;6.47;;;2.60;;
22138;SDS011;25815;52.582;13.408;2023-04-28T07:15:00;5.78;;;2.42;;
22138;SDS011;25815;52.582;13.408;2023-04-28T07:17:26;6.53;;;2.78;;
22138;SDS011;25815;52.582;13.408;2023-04-28T07:19:52;5.18;;;2.35;;
22138;SDS011;25815;52.582;13.408;2023-04-28T07:22:18;7.60;;;2.58;;
22138;SDS011;25815;52.582;13.408;2023-04-28T07:24:44;6.40;;;2.17;;
22138;SDS011;25815;52.582;13.408;2023-04-28T07:27:10;8.13;;;2.20;;
22138;SDS011;25815;52.582;13.408;2023-04-28T07:29:36;6.85;;;2.17;;
22138;SDS011;25815;52.582;13.408;2023-04-28T07:32:02;3.78;;;2.22;;
22138;SDS011;25815;52.582;13.408;2023-04-28T07:34:35;3.75;;;2.28;;
22138;SDS011;25815;52.582;13.408;2023-04-28T07:37:01;9.15;;;2.53;;
22138;SDS011;25815;52.582;13.408;2023-04-28T07:39:27;9.10;;;3.15;;
22138;SDS011;25815;52.582;13.408;2023-04-28T07:41:53;7.07;;;2.65;;
22138;SDS011;25815;52.582;13.408;2023-04-28T07:44:21;7.07;;;2.78;;
22138;SDS011;25815;52.582;13.408;2023-04-28T07:46:47;5.53;;;2.80;;
22138;SDS011;25815;52.582;13.408;2023-04-28T07:49:13;6.68;;;2.70;;
22138;SDS011;25815;52.582;13.408;2023-04-28T07:51:39;10.43;;;3.15;;
22138;SDS011;25815;52.582;13.408;2023-04-28T07:54:05;7.70;;;2.78;;
22138;SDS011;25815;52.582;13.408;2023-04-28T07:56:31;13.57;;;3.83;;
22138;SDS011;25815;52.582;13.408;2023-04-28T07:58:57;5.15;;;2.88;;
22138;SDS011;25815;52.582;13.408;2023-04-28T08:01:23;10.93;;;3.22;;
22138;SDS011;25815;52.582;13.408;2023-04-28T08:03:49;11.57;;;3.45;;
22138;SDS011;25815;52.582;13.408;2023-04-28T08:06:15;6.97;;;2.97;;
22138;SDS011;25815;52.582;13.408;2023-04-28T08:08:41;12.63;;;3.75;;
22138;SDS011;25815;52.582;13.408;2023-04-28T08:11:07;6.78;;;3.00;;
22138;SDS011;25815;52.582;13.408;2023-04-28T08:13:33;6.22;;;3.13;;
22138;SDS011;25815;52.582;13.408;2023-04-28T08:15:59;7.60;;;3.20;;
22138;SDS011;25815;52.582;13.408;2023-04-28T08:18:26;6.50;;;3.22;;
22138;SDS011;25815;52.582;13.408;2023-04-28T08:20:52;6.50;;;3.55;;
22138;SDS011;25815;52.582;13.408;2023-04-28T08:23:18;7.18;;;3.10;;
22138;SDS011;25815;52.582;13.408;2023-04-28T08:25:44;8.60;;;3.47;;
22138;SDS011;25815;52.582;13.408;2023-04-28T08:28:11;5.85;;;3.25;;
22138;SDS011;25815;52.582;13.408;2023-04-28T08:30:37;8.45;;;3.33;;
22138;SDS011;25815;52.582;13.408;2023-04-28T08:33:03;8.88;;;3.25;;
22138;SDS011;25815;52.582;13.408;2023-04-28T08:35:29;7.13;;;3.38;;
22138;SDS011;25815;52.582;13.408;2023-04-28T08:37:55;6.82;;;3.10;;
22138;SDS011;25815;52.582;13.408;2023-04-28T08:40:22;7.00;;;3.38;;
22138;SDS011;25815;52.582;13.408;2023-04-28T08:42:49;9.10;;;3.53;;
22138;SDS011;25815;52.582;13.408;2023-04-28T08:45:15;8.88;;;3.60;;
22138;SDS011;25815;52.582;13.408;2023-04-28T08:47:41;8.18;;;3.15;;
22138;SDS011;25815;52.582;13.408;2023-04-28T08:50:12;7.25;;;3.35;;
22138;SDS011;25815;52.582;13.408;2023-04-28T08:52:40;6.93;;;3.15;;
22138;SDS011;25815;52.582;13.408;2023-04-28T08:55:08;11.27;;;3.30;;
22138;SDS011;25815;52.582;13.408;2023-04-28T08:57:36;7.35;;;3.10;;
22138;SDS011;25815;52.582;13.408;2023-04-28T09:00:03;6.57;;;3.78;;
22138;SDS011;25815;52.582;13.408;2023-04-28T09:02:29;8.02;;;3.08;;
22138;SDS011;25815;52.582;13.408;2023-04-28T09:04:55;10.18;;;3.20;;
22138;SDS011;25815;52.582;13.408;2023-04-28T09:07:21;6.22;;;3.03;;
22138;SDS011;25815;52.582;13.408;2023-04-28T09:09:47;12.95;;;3.78;;
22138;SDS011;25815;52.582;13.408;2023-04-28T09:12:13;6.50;;;3.10;;
22138;SDS011;25815;52.582;13.408;2023-04-28T09:14:39;10.85;;;3.17;;
22138;SDS011;25815;52.582;13.408;2023-04-28T09:17:09;7.50;;;3.58;;
22138;SDS011;25815;52.582;13.408;2023-04-28T09:19:36;13.98;;;3.53;;
22138;SDS011;25815;52.582;13.408;2023-04-28T09:22:03;6.38;;;3.38;;
22138;SDS011;25815;52.582;13.408;2023-04-28T09:24:33;7.22;;;3.15;;
22138;SDS011;25815;52.582;13.408;2023-04-28T09:27:00;7.18;;;3.40;;
22138;SDS011;25815;52.582;13.408;2023-04-28T09:29:26;7.75;;;3.63;;
22138;SDS011;25815;52.582;13.408;2023-04-28T09:31:53;6.70;;;3.30;;
22138;SDS011;25815;52.582;13.408;2023-04-28T09:34:19;4.88;;;3.03;;
22138;SDS011;25815;52.582;13.408;2023-04-28T09:36:48;8.25;;;3.30;;
22138;SDS011;25815;52.582;13.408;2023-04-28T09:39:14;10.75;;;3.35;;
22138;SDS011;25815;52.582;13.408;2023-04-28T09:41:53;7.22;;;3.05;;
22138;SDS011;25815;52.582;13.408;2023-04-28T09:44:18;8.23;;;3.38;;
22138;SDS011;25815;52.582;13.408;2023-04-28T09:46:47;7.93;;;3.80;;
22138;SDS011;25815;52.582;13.408;2023-04-28T09:49:13;14.10;;;3.70;;
22138;SDS011;25815;52.582;13.408;2023-04-28T09:51:39;6.40;;;3.90;;
22138;SDS011;25815;52.582;13.408;2023-04-28T09:54:05;9.45;;;3.75;;
22138;SDS011;25815;52.582;13.408;2023-04-28T09:56:32;14.48;;;4.32;;
22138;SDS011;25815;52.582;13.408;2023-04-28T09:58:59;13.35;;;4.05;;
22138;SDS011;25815;52.582;13.408;2023-04-28T10:01:36;7.85;;;4.40;;
22138;SDS011;25815;52.582;13.408;2023-04-28T10:04:05;8.68;;;3.88;;
22138;SDS011;25815;52.582;13.408;2023-04-28T10:06:34;9.73;;;3.80;;
22138;SDS011;25815;52.582;13.408;2023-04-28T10:09:01;7.57;;;3.60;;
22138;SDS011;25815;52.582;13.408;2023-04-28T10:11:27;6.85;;;4.10;;
22138;SDS011;25815;52.582;13.408;2023-04-28T10:13:54;10.35;;;4.32;;
22138;SDS011;25815;52.582;13.408;2023-04-28T10:16:20;7.25;;;3.80;;
22138;SDS011;25815;52.582;13.408;2023-04-28T10:18:47;9.60;;;4.30;;
22138;SDS011;25815;52.582;13.408;2023-04-28T10:21:15;10.13;;;4.40;;
22138;SDS011;25815;52.582;13.408;2023-04-28T10:23:49;8.40;;;4.30;;
22138;SDS011;25815;52.582;13.408;2023-04-28T10:26:17;11.27;;;4.10;;
22138;SDS011;25815;52.582;13.408;2023-04-28T10:28:47;8.15;;;4.35;;
22138;SDS011;25815;52.582;13.408;2023-04-28T10:31:14;8.38;;;3.80;;
22138;SDS011;25815;52.582;13.408;2023-04-28T10:33:41;9.23;;;3.72;;
22138;SDS011;25815;52.582;13.408;2023-04-28T10:36:08;7.88;;;4.03;;
22138;SDS011;25815;52.582;13.408;2023-04-28T10:38:34;9.05;;;4.30;;
22138;SDS011;25815;52.582;13.408;2023-04-28T10:41:00;9.35;;;4.10;;
22138;SDS011;25815;52.582;13.408;2023-04-28T10:43:36;8.57;;;4.38;;
22138;SDS011;25815;52.582;13.408;2023-04-28T10:46:04;9.93;;;4.25;;
22138;SDS011;25815;52.582;13.408;2023-04-28T10:58:54;12.45;;;4.00;;
22138;SDS011;25815;52.582;13.408;2023-04-28T11:03:52;8.68;;;4.50;;
22138;SDS011;25815;52.582;13.408;2023-04-28T11:08:58;10.90;;;4.28;;
22138;SDS011;25815;52.582;13.408;2023-04-28T11:11:28;10.02;;;4.00;;
22138;SDS011;25815;52.582;13.408;2023-04-28T11:16:56;9.90;;;4.65;;
22138;SDS011;25815;52.582;13.408;2023-04-28T11:19:37;12.05;;;4.18;;
22138;SDS011;25815;52.582;13.408;2023-04-28T11:22:13;7.45;;;3.72;;
22138;SDS011;25815;52.582;13.408;2023-04-28T11:24:39;9.55;;;3.60;;
22138;SDS011;25815;52.582;13.408;2023-04-28T11:27:05;7.07;;;4.10;;
22138;SDS011;25815;52.582;13.408;2023-04-28T11:29:33;10.05;;;4.20;;
22138;SDS011;25815;52.582;13.408;2023-04-28T11:31:59;5.93;;;3.85;;
22138;SDS011;25815;52.582;13.408;2023-04-28T11:34:26;8.45;;;3.88;;
22138;SDS011;25815;52.582;13.408;2023-04-28T11:36:52;13.23;;;4.53;;
22138;SDS011;25815;52.582;13.408;2023-04-28T11:39:24;12.80;;;4.95;;
22138;SDS011;25815;52.582;13.408;2023-04-28T11:41:52;11.57;;;4.03;;
22138;SDS011;25815;52.582;13.408;2023-04-28T11:44:18;8.30;;;4.72;;
22138;SDS011;25815;52.582;13.408;2023-04-28T11:49:21;8.35;;;4.20;;
22138;SDS011;25815;52.582;13.408;2023-04-28T11:51:52;10.43;;;4.35;;
22138;SDS011;25815;52.582;13.408;2023-04-28T11:54:22;12.90;;;4.28;;
22138;SDS011;25815;52.582;13.408;2023-04-28T11:56:49;8.90;;;4.63;;
22138;SDS011;25815;52.582;13.408;2023-04-28T11:59:15;10.05;;;4.60;;
22138;SDS011;25815;52.582;13.408;2023-04-28T12:01:51;11.40;;;4.50;;
22138;SDS011;25815;52.582;13.408;2023-04-28T12:04:27;11.20;;;4.50;;
22138;SDS011;25815;52.582;13.408;2023-04-28T12:07:00;10.82;;;4.28;;
22138;SDS011;25815;52.582;13.408;2023-04-28T12:09:26;8.32;;;4.15;;
22138;SDS011;25815;52.582;13.408;2023-04-28T12:11:53;10.57;;;4.00;;
22138;SDS011;25815;52.582;13.408;2023-04-28T12:14:20;10.23;;;4.18;;
22138;SDS011;25815;52.582;13.408;2023-04-28T12:16:46;8.13;;;4.20;;
22138;SDS011;25815;52.582;13.408;2023-04-28T12:19:13;10.73;;;4.43;;
22138;SDS011;25815;52.582;13.408;2023-04-28T12:21:40;9.25;;;5.05;;
22138;SDS011;25815;52.582;13.408;2023-04-28T12:24:16;10.30;;;4.28;;
22138;SDS011;25815;52.582;13.408;2023-04-28T12:26:42;10.50;;;4.30;;
22138;SDS011;25815;52.582;13.408;2023-04-28T12:29:08;9.30;;;4.43;;
22138;SDS011;25815;52.582;13.408;2023-04-28T12:31:49;11.07;;;3.97;;
22138;SDS011;25815;52.582;13.408;2023-04-28T12:34:18;8.73;;;4.32;;
22138;SDS011;25815;52.582;13.408;2023-04-28T12:36:44;7.78;;;4.30;;
22138;SDS011;25815;52.582;13.408;2023-04-28T12:39:13;14.95;;;4.28;;
22138;SDS011;25815;52.582;13.408;2023-04-28T12:41:44;8.13;;;4.45;;
22138;SDS011;25815;52.582;13.408;2023-04-28T12:44:10;10.65;;;4.47;;
22138;SDS011;25815;52.582;13.408;2023-04-28T12:46:36;8.27;;;4.28;;
22138;SDS011;25815;52.582;13.408;2023-04-28T12:49:02;10.43;;;4.03;;
22138;SDS011;25815;52.582;13.408;2023-04-28T12:51:28;11.75;;;4.05;;
22138;SDS011;25815;52.582;13.408;2023-04-28T12:53:54;7.22;;;4.07;;
22138;SDS011;25815;52.582;13.408;2023-04-28T12:56:20;7.97;;;3.92;;
22138;SDS011;25815;52.582;13.408;2023-04-28T12:58:47;10.18;;;4.00;;
22138;SDS011;25815;52.582;13.408;2023-04-28T13:01:13;8.25;;;4.15;;
22138;SDS011;25815;52.582;13.408;2023-04-28T13:03:39;10.27;;;4.00;;
22138;SDS011;25815;52.582;13.408;2023-04-28T13:06:07;11.23;;;3.83;;
22138;SDS011;25815;52.582;13.408;2023-04-28T13:08:34;6.78;;;4.10;;
22138;SDS011;25815;52.582;13.408;2023-04-28T13:11:00;10.23;;;4.28;;
22138;SDS011;25815;52.582;13.408;2023-04-28T13:13:29;8.45;;;4.20;;
22138;SDS011;25815;52.582;13.408;2023-04-28T13:15:55;9.57;;;4.55;;
22138;SDS011;25815;52.582;13.408;2023-04-28T13:18:21;13.43;;;4.60;;
22138;SDS011;25815;52.582;13.408;2023-04-28T13:20:48;7.82;;;3.88;;
22138;SDS011;25815;52.582;13.408;2023-04-28T13:23:14;9.18;;;3.72;;
22138;SDS011;25815;52.582;13.408;2023-04-28T13:25:40;10.35;;;4.55;;
22138;SDS011;25815;52.582;13.408;2023-04-28T13:28:06;10.52;;;4.80;;
22138;SDS011;25815;52.582;13.408;2023-04-28T13:30:32;9.10;;;3.85;;
22138;SDS011;25815;52.582;13.408;2023-04-28T13:32:58;7.85;;;3.60;;
22138;SDS011;25815;52.582;13.408;2023-04-28T13:35:24;7.25;;;3.67;;
22138;SDS011;25815;52.582;13.408;2023-04-28T13:37:51;7.45;;;4.20;;
22138;SDS011;25815;52.582;13.408;2023-04-28T13:40:25;8.98;;;4.03;;
22138;SDS011;25815;52.582;13.408;2023-04-28T13:42:51;8.23;;;4.57;;
22138;SDS011;25815;52.582;13.408;2023-04-28T13:45:17;8.77;;;3.85;;
22138;SDS011;25815;52.582;13.408;2023-04-28T13:47:43;7.60;;;4.00;;
22138;SDS011;25815;52.582;13.408;2023-04-28T13:50:09;8.98;;;4.28;;
22138;SDS011;25815;52.582;13.408;2023-04-28T13:52:35;8.35;;;3.83;;
22138;SDS011;25815;52.582;13.408;2023-04-28T13:55:01;9.55;;;3.88;;
22138;SDS011;25815;52.582;13.408;2023-04-28T13:57:27;7.43;;;3.83;;
22138;SDS011;25815;52.582;13.408;2023-04-28T13:59:53;8.48;;;3.88;;
22138;SDS011;25815;52.582;13.408;2023-04-28T14:02:19;10.05;;;4.00;;
22138;SDS011;25815;52.582;13.408;2023-04-28T14:04:45;9.23;;;4.20;;
22138;SDS011;25815;52.582;13.408;2023-04-28T14:07:15;7.10;;;3.60;;
22138;SDS011;25815;52.582;13.408;2023-04-28T14:09:41;7.45;;;4.47;;
22138;SDS011;25815;52.582;13.408;2023-04-28T14:12:07;7.75;;;4.60;;
22138;SDS011;25815;52.582;13.408;2023-04-28T14:14:34;7.50;;;4.30;;
22138;SDS011;25815;52.582;13.408;2023-04-28T14:17:01;7.95;;;3.95;;
22138;SDS011;25815;52.582;13.408;2023-04-28T14:19:27;9.50;;;4.38;;
22138;SDS011;25815;52.582;13.408;2023-04-28T14:21:53;7.60;;;4.60;;
22138;SDS011;25815;52.582;13.408;2023-04-28T14:24:19;9.63;;;4.68;;
22138;SDS011;25815;52.582;13.408;2023-04-28T14:26:45;7.05;;;4.50;;
22138;SDS011;25815;52.582;13.408;2023-04-28T14:29:13;7.43;;;4.45;;
22138;SDS011;25815;52.582;13.408;2023-04-28T14:31:40;8.02;;;4.38;;
22138;SDS011;25815;52.582;13.408;2023-04-28T14:34:06;8.15;;;4.10;;
22138;SDS011;25815;52.582;13.408;2023-04-28T14:36:32;8.45;;;3.97;;
22138;SDS011;25815;52.582;13.408;2023-04-28T14:38:59;7.65;;;4.00;;
22138;SDS011;25815;52.582;13.408;2023-04-28T14:41:25;9.23;;;4.10;;
22138;SDS011;25815;52.582;13.408;2023-04-28T14:43:51;12.85;;;4.22;;
22138;SDS011;25815;52.582;13.408;2023-04-28T14:46:17;9.70;;;4.10;;